sensor_id;sensor_type;location;lat;lon;timestamp;P1;durP1;ratioP1;P2;durP2;ratioP2
60436;SDS011;46289;51.992;4.498;2023-08-21T00:01:32;9.05;;;3.30;;
60436;SDS011;46289;51.992;4.498;2023-08-21T00:03:37;8.00;;;3.53;;
60436;SDS011;46289;51.992;4.498;2023-08-21T00:05:42;7.60;;;3.05;;
60436;SDS011;46289;51.992;4.498;2023-08-21T00:07:50;8.82;;;3.28;;
60436;SDS011;46289;51.992;4.498;2023-08-21T00:09:57;10.32;;;2.70;;
60436;SDS011;46289;51.992;4.498;2023-08-21T00:12:03;6.03;;;2.70;;
60436;SDS011;46289;51.992;4.498;2023-08-21T00:14:08;9.18;;;3.95;;
60436;SDS011;46289;51.992;4.498;2023-08-21T00:16:14;11.15;;;4.00;;
60436;SDS011;46289;51.992;4.498;2023-08-21T00:18:19;6.00;;;2.83;;
60436;SDS011;46289;51.992;4.498;2023-08-21T00:20:27;10.20;;;3.78;;
60436;SDS011;46289;51.992;4.498;2023-08-21T00:22:32;7.70;;;3.25;;
60436;SDS011;46289;51.992;4.498;2023-08-21T00:24:40;6.72;;;3.30;;
60436;SDS011;46289;51.992;4.498;2023-08-21T00:26:46;5.65;;;2.47;;
60436;SDS011;46289;51.992;4.498;2023-08-21T00:28:51;8.68;;;2.92;;
60436;SDS011;46289;51.992;4.498;2023-08-21T00:31:01;9.02;;;3.22;;
60436;SDS011;46289;51.992;4.498;2023-08-21T00:33:08;11.73;;;3.00;;
60436;SDS011;46289;51.992;4.498;2023-08-21T00:35:13;9.02;;;3.30;;
60436;SDS011;46289;51.992;4.498;2023-08-21T00:37:18;6.00;;;3.10;;
60436;SDS011;46289;51.992;4.498;2023-08-21T00:39:21;5.82;;;3.00;;
60436;SDS011;46289;51.992;4.498;2023-08-21T00:41:31;6.68;;;2.90;;
60436;SDS011;46289;51.992;4.498;2023-08-21T00:43:36;5.47;;;3.22;;
60436;SDS011;46289;51.992;4.498;2023-08-21T00:45:43;4.55;;;2.42;;
60436;SDS011;46289;51.992;4.498;2023-08-21T00:47:49;7.25;;;2.72;;
60436;SDS011;46289;51.992;4.498;2023-08-21T00:49:57;4.55;;;2.72;;
60436;SDS011;46289;51.992;4.498;2023-08-21T00:52:03;7.78;;;3.22;;
60436;SDS011;46289;51.992;4.498;2023-08-21T00:54:08;7.18;;;2.80;;
60436;SDS011;46289;51.992;4.498;2023-08-21T00:56:13;7.13;;;2.83;;
60436;SDS011;46289;51.992;4.498;2023-08-21T00:58:22;7.10;;;2.40;;
60436;SDS011;46289;51.992;4.498;2023-08-21T01:00:27;7.13;;;2.60;;
60436;SDS011;46289;51.992;4.498;2023-08-21T01:02:34;4.35;;;2.40;;
60436;SDS011;46289;51.992;4.498;2023-08-21T01:04:43;5.55;;;2.63;;
60436;SDS011;46289;51.992;4.498;2023-08-21T01:06:49;6.97;;;2.60;;
60436;SDS011;46289;51.992;4.498;2023-08-21T01:08:56;4.43;;;2.50;;
60436;SDS011;46289;51.992;4.498;2023-08-21T01:11:08;5.90;;;2.58;;
60436;SDS011;46289;51.992;4.498;2023-08-21T01:13:27;5.15;;;2.30;;
60436;SDS011;46289;51.992;4.498;2023-08-21T01:15:45;6.32;;;2.60;;
60436;SDS011;46289;51.992;4.498;2023-08-21T01:17:57;6.32;;;2.15;;
60436;SDS011;46289;51.992;4.498;2023-08-21T01:20:05;3.72;;;2.20;;
60436;SDS011;46289;51.992;4.498;2023-08-21T01:22:13;4.20;;;2.40;;
60436;SDS011;46289;51.992;4.498;2023-08-21T01:24:21;4.82;;;2.45;;
60436;SDS011;46289;51.992;4.498;2023-08-21T01:26:26;6.05;;;2.63;;
60436;SDS011;46289;51.992;4.498;2023-08-21T01:28:32;8.05;;;2.42;;
60436;SDS011;46289;51.992;4.498;2023-08-21T01:30:38;6.10;;;2.13;;
60436;SDS011;46289;51.992;4.498;2023-08-21T01:32:45;6.30;;;2.45;;
60436;SDS011;46289;51.992;4.498;2023-08-21T01:34:57;2.80;;;2.05;;
60436;SDS011;46289;51.992;4.498;2023-08-21T01:37:03;9.07;;;2.88;;
60436;SDS011;46289;51.992;4.498;2023-08-21T01:39:10;5.90;;;2.42;;
60436;SDS011;46289;51.992;4.498;2023-08-21T01:41:18;6.63;;;2.08;;
60436;SDS011;46289;51.992;4.498;2023-08-21T01:43:23;7.05;;;2.47;;
60436;SDS011;46289;51.992;4.498;2023-08-21T01:45:31;3.92;;;2.25;;
60436;SDS011;46289;51.992;4.498;2023-08-21T01:47:36;4.25;;;2.03;;
60436;SDS011;46289;51.992;4.498;2023-08-21T01:49:41;4.63;;;2.17;;
60436;SDS011;46289;51.992;4.498;2023-08-21T01:51:49;7.45;;;2.35;;
60436;SDS011;46289;51.992;4.498;2023-08-21T01:53:57;5.63;;;2.53;;
60436;SDS011;46289;51.992;4.498;2023-08-21T01:56:00;6.30;;;2.08;;
60436;SDS011;46289;51.992;4.498;2023-08-21T01:58:07;5.80;;;1.98;;
60436;SDS011;46289;51.992;4.498;2023-08-21T02:00:13;3.78;;;2.50;;
60436;SDS011;46289;51.992;4.498;2023-08-21T02:02:19;8.27;;;2.75;;
60436;SDS011;46289;51.992;4.498;2023-08-21T02:04:26;4.85;;;1.95;;
60436;SDS011;46289;51.992;4.498;2023-08-21T02:06:31;4.18;;;2.38;;
60436;SDS011;46289;51.992;4.498;2023-08-21T02:08:37;7.13;;;2.15;;
60436;SDS011;46289;51.992;4.498;2023-08-21T02:10:48;3.72;;;1.98;;
60436;SDS011;46289;51.992;4.498;2023-08-21T02:12:51;4.97;;;2.40;;
60436;SDS011;46289;51.992;4.498;2023-08-21T02:14:59;3.55;;;2.28;;
60436;SDS011;46289;51.992;4.498;2023-08-21T02:17:04;5.85;;;2.30;;
60436;SDS011;46289;51.992;4.498;2023-08-21T02:19:09;3.45;;;2.53;;
60436;SDS011;46289;51.992;4.498;2023-08-21T02:21:14;3.28;;;2.10;;
60436;SDS011;46289;51.992;4.498;2023-08-21T02:23:20;6.05;;;2.53;;
60436;SDS011;46289;51.992;4.498;2023-08-21T02:25:27;4.82;;;2.08;;
60436;SDS011;46289;51.992;4.498;2023-08-21T02:27:33;6.70;;;2.50;;
60436;SDS011;46289;51.992;4.498;2023-08-21T02:29:39;6.88;;;2.20;;
60436;SDS011;46289;51.992;4.498;2023-08-21T02:31:47;4.65;;;2.30;;
60436;SDS011;46289;51.992;4.498;2023-08-21T02:33:52;5.43;;;2.20;;
60436;SDS011;46289;51.992;4.498;2023-08-21T02:35:57;4.45;;;2.20;;
60436;SDS011;46289;51.992;4.498;2023-08-21T02:38:04;7.20;;;2.10;;
60436;SDS011;46289;51.992;4.498;2023-08-21T02:40:10;3.13;;;2.10;;
60436;SDS011;46289;51.992;4.498;2023-08-21T02:42:15;6.10;;;2.60;;
60436;SDS011;46289;51.992;4.498;2023-08-21T02:44:20;5.55;;;2.50;;
60436;SDS011;46289;51.992;4.498;2023-08-21T02:46:28;6.72;;;2.45;;
60436;SDS011;46289;51.992;4.498;2023-08-21T02:48:37;4.45;;;2.42;;
60436;SDS011;46289;51.992;4.498;2023-08-21T02:50:43;5.13;;;2.00;;
60436;SDS011;46289;51.992;4.498;2023-08-21T02:52:48;6.47;;;2.72;;
60436;SDS011;46289;51.992;4.498;2023-08-21T02:54:53;5.53;;;2.15;;
60436;SDS011;46289;51.992;4.498;2023-08-21T02:57:00;4.97;;;2.50;;
60436;SDS011;46289;51.992;4.498;2023-08-21T02:59:05;6.97;;;2.10;;
60436;SDS011;46289;51.992;4.498;2023-08-21T03:01:11;4.28;;;2.50;;
60436;SDS011;46289;51.992;4.498;2023-08-21T03:03:16;5.32;;;2.63;;
60436;SDS011;46289;51.992;4.498;2023-08-21T03:05:32;4.85;;;2.55;;
60436;SDS011;46289;51.992;4.498;2023-08-21T03:07:38;6.13;;;2.40;;
60436;SDS011;46289;51.992;4.498;2023-08-21T03:09:41;6.00;;;2.55;;
60436;SDS011;46289;51.992;4.498;2023-08-21T03:11:46;5.50;;;2.85;;
60436;SDS011;46289;51.992;4.498;2023-08-21T03:13:51;5.28;;;2.20;;
60436;SDS011;46289;51.992;4.498;2023-08-21T03:15:57;5.63;;;2.30;;
60436;SDS011;46289;51.992;4.498;2023-08-21T03:18:03;5.00;;;2.38;;
60436;SDS011;46289;51.992;4.498;2023-08-21T03:20:09;4.82;;;2.45;;
60436;SDS011;46289;51.992;4.498;2023-08-21T03:22:18;6.35;;;2.70;;
60436;SDS011;46289;51.992;4.498;2023-08-21T03:24:23;7.15;;;2.80;;
60436;SDS011;46289;51.992;4.498;2023-08-21T03:26:28;4.35;;;2.53;;
60436;SDS011;46289;51.992;4.498;2023-08-21T03:28:33;5.85;;;2.92;;
60436;SDS011;46289;51.992;4.498;2023-08-21T03:30:39;7.28;;;2.83;;
60436;SDS011;46289;51.992;4.498;2023-08-21T03:32:44;7.45;;;2.92;;
60436;SDS011;46289;51.992;4.498;2023-08-21T03:34:50;5.00;;;2.70;;
60436;SDS011;46289;51.992;4.498;2023-08-21T03:36:59;7.68;;;3.35;;
60436;SDS011;46289;51.992;4.498;2023-08-21T03:39:07;5.47;;;2.58;;
60436;SDS011;46289;51.992;4.498;2023-08-21T03:41:12;5.72;;;2.90;;
60436;SDS011;46289;51.992;4.498;2023-08-21T03:43:17;6.63;;;3.20;;
60436;SDS011;46289;51.992;4.498;2023-08-21T03:45:23;7.10;;;2.80;;
60436;SDS011;46289;51.992;4.498;2023-08-21T03:47:28;5.45;;;2.80;;
60436;SDS011;46289;51.992;4.498;2023-08-21T03:49:33;5.32;;;2.45;;
60436;SDS011;46289;51.992;4.498;2023-08-21T03:51:38;4.82;;;2.80;;
60436;SDS011;46289;51.992;4.498;2023-08-21T03:53:46;7.43;;;3.17;;
60436;SDS011;46289;51.992;4.498;2023-08-21T03:55:56;15.82;;;3.72;;
60436;SDS011;46289;51.992;4.498;2023-08-21T03:58:02;5.35;;;2.80;;
60436;SDS011;46289;51.992;4.498;2023-08-21T04:00:08;6.85;;;2.90;;
60436;SDS011;46289;51.992;4.498;2023-08-21T04:02:14;4.28;;;2.25;;
60436;SDS011;46289;51.992;4.498;2023-08-21T04:04:19;8.32;;;3.80;;
60436;SDS011;46289;51.992;4.498;2023-08-21T04:06:27;6.90;;;3.17;;
60436;SDS011;46289;51.992;4.498;2023-08-21T04:08:32;7.82;;;3.47;;
60436;SDS011;46289;51.992;4.498;2023-08-21T04:10:38;7.32;;;2.90;;
60436;SDS011;46289;51.992;4.498;2023-08-21T04:12:49;6.05;;;3.08;;
60436;SDS011;46289;51.992;4.498;2023-08-21T04:14:56;6.57;;;3.63;;
60436;SDS011;46289;51.992;4.498;2023-08-21T04:17:01;6.75;;;3.50;;
60436;SDS011;46289;51.992;4.498;2023-08-21T04:19:07;7.35;;;4.28;;
60436;SDS011;46289;51.992;4.498;2023-08-21T04:21:12;5.30;;;3.03;;
60436;SDS011;46289;51.992;4.498;2023-08-21T04:23:17;6.75;;;2.90;;
60436;SDS011;46289;51.992;4.498;2023-08-21T04:27:27;6.55;;;3.00;;
60436;SDS011;46289;51.992;4.498;2023-08-21T04:29:35;9.60;;;4.22;;
60436;SDS011;46289;51.992;4.498;2023-08-21T04:31:41;7.63;;;3.40;;
60436;SDS011;46289;51.992;4.498;2023-08-21T04:33:46;8.07;;;3.63;;
60436;SDS011;46289;51.992;4.498;2023-08-21T04:35:51;6.82;;;3.08;;
60436;SDS011;46289;51.992;4.498;2023-08-21T04:37:57;8.02;;;3.50;;
60436;SDS011;46289;51.992;4.498;2023-08-21T04:40:03;7.43;;;3.25;;
60436;SDS011;46289;51.992;4.498;2023-08-21T04:42:09;7.80;;;2.95;;
60436;SDS011;46289;51.992;4.498;2023-08-21T04:44:14;10.18;;;3.30;;
60436;SDS011;46289;51.992;4.498;2023-08-21T04:46:22;8.10;;;3.83;;
60436;SDS011;46289;51.992;4.498;2023-08-21T04:48:29;6.82;;;3.17;;
60436;SDS011;46289;51.992;4.498;2023-08-21T04:50:32;7.65;;;3.45;;
60436;SDS011;46289;51.992;4.498;2023-08-21T04:52:38;5.88;;;3.25;;
60436;SDS011;46289;51.992;4.498;2023-08-21T04:54:43;9.68;;;3.40;;
60436;SDS011;46289;51.992;4.498;2023-08-21T04:56:48;7.05;;;3.15;;
60436;SDS011;46289;51.992;4.498;2023-08-21T04:59:02;6.03;;;3.42;;
60436;SDS011;46289;51.992;4.498;2023-08-21T05:01:07;7.13;;;3.50;;
60436;SDS011;46289;51.992;4.498;2023-08-21T05:03:15;6.03;;;3.30;;
60436;SDS011;46289;51.992;4.498;2023-08-21T05:05:20;6.72;;;3.28;;
60436;SDS011;46289;51.992;4.498;2023-08-21T05:07:28;6.82;;;2.72;;
60436;SDS011;46289;51.992;4.498;2023-08-21T05:09:34;6.93;;;3.13;;
60436;SDS011;46289;51.992;4.498;2023-08-21T05:11:39;7.18;;;2.88;;
60436;SDS011;46289;51.992;4.498;2023-08-21T05:13:44;6.97;;;3.17;;
60436;SDS011;46289;51.992;4.498;2023-08-21T05:15:53;7.47;;;3.33;;
60436;SDS011;46289;51.992;4.498;2023-08-21T05:17:58;11.02;;;3.97;;
60436;SDS011;46289;51.992;4.498;2023-08-21T05:20:07;8.05;;;3.50;;
60436;SDS011;46289;51.992;4.498;2023-08-21T05:22:15;6.65;;;3.45;;
60436;SDS011;46289;51.992;4.498;2023-08-21T05:24:21;7.07;;;3.28;;
60436;SDS011;46289;51.992;4.498;2023-08-21T05:26:26;6.38;;;3.60;;
60436;SDS011;46289;51.992;4.498;2023-08-21T05:28:33;8.85;;;3.20;;
60436;SDS011;46289;51.992;4.498;2023-08-21T05:30:38;9.57;;;3.80;;
60436;SDS011;46289;51.992;4.498;2023-08-21T05:32:43;6.03;;;3.10;;
60436;SDS011;46289;51.992;4.498;2023-08-21T05:34:48;6.40;;;3.22;;
60436;SDS011;46289;51.992;4.498;2023-08-21T05:36:56;7.03;;;3.38;;
60436;SDS011;46289;51.992;4.498;2023-08-21T05:39:02;6.78;;;3.72;;
60436;SDS011;46289;51.992;4.498;2023-08-21T05:41:07;7.90;;;3.67;;
60436;SDS011;46289;51.992;4.498;2023-08-21T05:43:13;7.88;;;3.70;;
60436;SDS011;46289;51.992;4.498;2023-08-21T05:45:18;8.18;;;4.55;;
60436;SDS011;46289;51.992;4.498;2023-08-21T05:47:23;11.68;;;3.78;;
60436;SDS011;46289;51.992;4.498;2023-08-21T05:49:29;12.25;;;5.05;;
60436;SDS011;46289;51.992;4.498;2023-08-21T05:51:34;8.05;;;4.18;;
60436;SDS011;46289;51.992;4.498;2023-08-21T05:53:39;8.55;;;3.92;;
60436;SDS011;46289;51.992;4.498;2023-08-21T05:55:45;10.15;;;4.55;;
60436;SDS011;46289;51.992;4.498;2023-08-21T05:57:50;10.18;;;4.10;;
60436;SDS011;46289;51.992;4.498;2023-08-21T05:59:55;9.05;;;4.18;;
60436;SDS011;46289;51.992;4.498;2023-08-21T06:02:01;10.98;;;4.60;;
60436;SDS011;46289;51.992;4.498;2023-08-21T06:04:06;7.88;;;3.83;;
60436;SDS011;46289;51.992;4.498;2023-08-21T06:06:11;9.20;;;4.30;;
60436;SDS011;46289;51.992;4.498;2023-08-21T06:08:16;13.85;;;4.18;;
60436;SDS011;46289;51.992;4.498;2023-08-21T06:10:25;8.30;;;4.30;;
60436;SDS011;46289;51.992;4.498;2023-08-21T06:12:31;7.93;;;4.18;;
60436;SDS011;46289;51.992;4.498;2023-08-21T06:14:37;9.98;;;4.63;;
60436;SDS011;46289;51.992;4.498;2023-08-21T06:16:41;15.13;;;4.82;;
60436;SDS011;46289;51.992;4.498;2023-08-21T06:18:48;13.15;;;4.80;;
60436;SDS011;46289;51.992;4.498;2023-08-21T06:21:10;13.07;;;4.78;;
60436;SDS011;46289;51.992;4.498;2023-08-21T06:23:43;12.27;;;4.68;;
60436;SDS011;46289;51.992;4.498;2023-08-21T06:28:43;10.15;;;4.65;;
60436;SDS011;46289;51.992;4.498;2023-08-21T06:30:55;12.68;;;4.75;;
60436;SDS011;46289;51.992;4.498;2023-08-21T06:33:07;10.45;;;4.10;;
60436;SDS011;46289;51.992;4.498;2023-08-21T06:35:15;14.50;;;5.05;;
60436;SDS011;46289;51.992;4.498;2023-08-21T06:37:22;12.02;;;4.20;;
60436;SDS011;46289;51.992;4.498;2023-08-21T06:39:41;12.98;;;4.22;;
60436;SDS011;46289;51.992;4.498;2023-08-21T06:41:46;9.85;;;4.85;;
60436;SDS011;46289;51.992;4.498;2023-08-21T06:43:54;9.48;;;4.68;;
60436;SDS011;46289;51.992;4.498;2023-08-21T06:46:13;9.50;;;4.10;;
60436;SDS011;46289;51.992;4.498;2023-08-21T06:48:20;10.50;;;3.55;;
60436;SDS011;46289;51.992;4.498;2023-08-21T06:50:27;13.38;;;3.90;;
60436;SDS011;46289;51.992;4.498;2023-08-21T06:52:34;10.23;;;3.58;;
60436;SDS011;46289;51.992;4.498;2023-08-21T06:54:41;11.52;;;3.47;;
60436;SDS011;46289;51.992;4.498;2023-08-21T06:56:47;10.85;;;3.45;;
60436;SDS011;46289;51.992;4.498;2023-08-21T06:58:54;6.50;;;3.05;;
60436;SDS011;46289;51.992;4.498;2023-08-21T07:00:59;11.70;;;3.55;;
60436;SDS011;46289;51.992;4.498;2023-08-21T07:03:05;9.32;;;3.13;;
60436;SDS011;46289;51.992;4.498;2023-08-21T07:05:11;8.32;;;2.95;;
60436;SDS011;46289;51.992;4.498;2023-08-21T07:07:16;6.38;;;3.30;;
60436;SDS011;46289;51.992;4.498;2023-08-21T07:09:18;10.55;;;3.10;;
60436;SDS011;46289;51.992;4.498;2023-08-21T07:11:24;9.57;;;3.90;;
60436;SDS011;46289;51.992;4.498;2023-08-21T07:13:34;10.13;;;3.65;;
60436;SDS011;46289;51.992;4.498;2023-08-21T07:15:42;8.55;;;3.50;;
60436;SDS011;46289;51.992;4.498;2023-08-21T07:17:47;10.43;;;3.97;;
60436;SDS011;46289;51.992;4.498;2023-08-21T07:19:53;10.55;;;4.05;;
60436;SDS011;46289;51.992;4.498;2023-08-21T07:22:00;11.88;;;3.40;;
60436;SDS011;46289;51.992;4.498;2023-08-21T07:24:06;9.98;;;3.67;;
60436;SDS011;46289;51.992;4.498;2023-08-21T07:26:11;6.80;;;2.83;;
60436;SDS011;46289;51.992;4.498;2023-08-21T07:28:16;8.98;;;3.53;;
60436;SDS011;46289;51.992;4.498;2023-08-21T07:30:22;10.65;;;3.25;;
60436;SDS011;46289;51.992;4.498;2023-08-21T07:32:29;10.23;;;3.25;;
60436;SDS011;46289;51.992;4.498;2023-08-21T07:34:38;11.70;;;3.65;;
60436;SDS011;46289;51.992;4.498;2023-08-21T07:36:44;7.95;;;4.28;;
60436;SDS011;46289;51.992;4.498;2023-08-21T07:38:49;9.90;;;3.53;;
60436;SDS011;46289;51.992;4.498;2023-08-21T07:41:03;9.90;;;3.58;;
60436;SDS011;46289;51.992;4.498;2023-08-21T07:43:09;10.00;;;3.92;;
60436;SDS011;46289;51.992;4.498;2023-08-21T07:45:14;7.50;;;3.50;;
60436;SDS011;46289;51.992;4.498;2023-08-21T07:47:19;7.95;;;3.13;;
60436;SDS011;46289;51.992;4.498;2023-08-21T07:49:28;9.60;;;3.55;;
60436;SDS011;46289;51.992;4.498;2023-08-21T07:51:33;9.57;;;3.42;;
60436;SDS011;46289;51.992;4.498;2023-08-21T07:53:38;11.55;;;4.40;;
60436;SDS011;46289;51.992;4.498;2023-08-21T07:55:46;12.48;;;3.40;;
60436;SDS011;46289;51.992;4.498;2023-08-21T07:57:51;10.32;;;3.90;;
60436;SDS011;46289;51.992;4.498;2023-08-21T07:59:56;8.57;;;3.50;;
60436;SDS011;46289;51.992;4.498;2023-08-21T08:02:01;10.52;;;4.45;;
60436;SDS011;46289;51.992;4.498;2023-08-21T08:04:07;11.30;;;3.92;;
60436;SDS011;46289;51.992;4.498;2023-08-21T08:06:15;8.75;;;3.17;;
60436;SDS011;46289;51.992;4.498;2023-08-21T08:08:20;5.82;;;3.83;;
60436;SDS011;46289;51.992;4.498;2023-08-21T08:10:27;7.68;;;3.38;;
60436;SDS011;46289;51.992;4.498;2023-08-21T08:12:32;8.40;;;2.70;;
60436;SDS011;46289;51.992;4.498;2023-08-21T08:14:38;8.23;;;2.95;;
60436;SDS011;46289;51.992;4.498;2023-08-21T08:16:43;9.40;;;2.80;;
60436;SDS011;46289;51.992;4.498;2023-08-21T08:18:50;3.75;;;2.38;;
60436;SDS011;46289;51.992;4.498;2023-08-21T08:20:55;11.93;;;2.80;;
60436;SDS011;46289;51.992;4.498;2023-08-21T08:23:03;8.93;;;2.90;;
60436;SDS011;46289;51.992;4.498;2023-08-21T08:25:08;6.97;;;2.70;;
60436;SDS011;46289;51.992;4.498;2023-08-21T08:27:15;9.32;;;2.78;;
60436;SDS011;46289;51.992;4.498;2023-08-21T08:29:20;6.80;;;3.10;;
60436;SDS011;46289;51.992;4.498;2023-08-21T08:31:26;6.90;;;2.53;;
60436;SDS011;46289;51.992;4.498;2023-08-21T08:33:32;9.88;;;2.95;;
60436;SDS011;46289;51.992;4.498;2023-08-21T08:35:37;7.00;;;3.15;;
60436;SDS011;46289;51.992;4.498;2023-08-21T08:37:42;7.15;;;3.55;;
60436;SDS011;46289;51.992;4.498;2023-08-21T08:39:48;7.72;;;3.22;;
60436;SDS011;46289;51.992;4.498;2023-08-21T08:41:56;9.95;;;3.20;;
60436;SDS011;46289;51.992;4.498;2023-08-21T08:44:04;11.07;;;3.60;;
60436;SDS011;46289;51.992;4.498;2023-08-21T08:46:10;6.85;;;3.17;;
60436;SDS011;46289;51.992;4.498;2023-08-21T08:48:16;6.32;;;2.72;;
60436;SDS011;46289;51.992;4.498;2023-08-21T08:50:25;10.50;;;3.58;;
60436;SDS011;46289;51.992;4.498;2023-08-21T08:52:34;11.82;;;3.22;;
60436;SDS011;46289;51.992;4.498;2023-08-21T08:54:41;9.38;;;3.22;;
60436;SDS011;46289;51.992;4.498;2023-08-21T08:56:49;9.48;;;3.58;;
60436;SDS011;46289;51.992;4.498;2023-08-21T08:58:57;6.95;;;2.63;;
60436;SDS011;46289;51.992;4.498;2023-08-21T09:01:02;4.78;;;2.25;;
60436;SDS011;46289;51.992;4.498;2023-08-21T09:03:07;6.80;;;2.50;;
60436;SDS011;46289;51.992;4.498;2023-08-21T09:05:14;7.22;;;2.72;;
60436;SDS011;46289;51.992;4.498;2023-08-21T09:07:17;8.25;;;3.33;;
60436;SDS011;46289;51.992;4.498;2023-08-21T09:09:23;6.72;;;2.30;;
60436;SDS011;46289;51.992;4.498;2023-08-21T09:11:28;6.18;;;1.98;;
60436;SDS011;46289;51.992;4.498;2023-08-21T09:13:36;8.00;;;2.47;;
60436;SDS011;46289;51.992;4.498;2023-08-21T09:15:43;4.63;;;2.20;;
60436;SDS011;46289;51.992;4.498;2023-08-21T09:17:53;7.18;;;2.28;;
60436;SDS011;46289;51.992;4.498;2023-08-21T09:20:03;6.13;;;2.22;;
60436;SDS011;46289;51.992;4.498;2023-08-21T09:22:09;6.03;;;2.20;;
60436;SDS011;46289;51.992;4.498;2023-08-21T09:24:16;6.45;;;2.47;;
60436;SDS011;46289;51.992;4.498;2023-08-21T09:26:19;6.40;;;2.53;;
60436;SDS011;46289;51.992;4.498;2023-08-21T09:28:27;5.15;;;2.20;;
60436;SDS011;46289;51.992;4.498;2023-08-21T09:30:49;4.63;;;2.03;;
60436;SDS011;46289;51.992;4.498;2023-08-21T09:33:00;5.95;;;2.10;;
60436;SDS011;46289;51.992;4.498;2023-08-21T09:35:07;5.65;;;2.30;;
60436;SDS011;46289;51.992;4.498;2023-08-21T09:37:18;5.05;;;2.03;;
60436;SDS011;46289;51.992;4.498;2023-08-21T09:39:23;4.65;;;1.77;;
60436;SDS011;46289;51.992;4.498;2023-08-21T09:41:31;2.97;;;2.10;;
60436;SDS011;46289;51.992;4.498;2023-08-21T09:43:40;8.80;;;2.60;;
60436;SDS011;46289;51.992;4.498;2023-08-21T09:45:50;9.15;;;2.60;;
60436;SDS011;46289;51.992;4.498;2023-08-21T09:47:57;5.70;;;2.25;;
60436;SDS011;46289;51.992;4.498;2023-08-21T09:50:04;5.57;;;2.42;;
60436;SDS011;46289;51.992;4.498;2023-08-21T09:52:09;3.92;;;1.92;;
60436;SDS011;46289;51.992;4.498;2023-08-21T09:54:15;6.97;;;2.80;;
60436;SDS011;46289;51.992;4.498;2023-08-21T09:56:21;5.38;;;2.45;;
60436;SDS011;46289;51.992;4.498;2023-08-21T09:58:24;3.95;;;1.90;;
60436;SDS011;46289;51.992;4.498;2023-08-21T10:00:30;4.22;;;1.92;;
60436;SDS011;46289;51.992;4.498;2023-08-21T10:02:39;5.65;;;2.65;;
60436;SDS011;46289;51.992;4.498;2023-08-21T10:04:47;6.38;;;2.47;;
60436;SDS011;46289;51.992;4.498;2023-08-21T10:06:56;4.40;;;2.20;;
60436;SDS011;46289;51.992;4.498;2023-08-21T10:09:02;6.30;;;2.35;;
60436;SDS011;46289;51.992;4.498;2023-08-21T10:11:09;5.82;;;2.20;;
60436;SDS011;46289;51.992;4.498;2023-08-21T10:13:14;5.63;;;2.33;;
60436;SDS011;46289;51.992;4.498;2023-08-21T10:15:20;5.35;;;2.13;;
60436;SDS011;46289;51.992;4.498;2023-08-21T10:17:27;5.10;;;2.40;;
60436;SDS011;46289;51.992;4.498;2023-08-21T10:19:35;5.35;;;2.45;;
60436;SDS011;46289;51.992;4.498;2023-08-21T10:21:41;7.43;;;2.35;;
60436;SDS011;46289;51.992;4.498;2023-08-21T10:23:46;5.05;;;2.70;;
60436;SDS011;46289;51.992;4.498;2023-08-21T10:25:55;9.05;;;2.47;;
60436;SDS011;46289;51.992;4.498;2023-08-21T10:28:03;8.15;;;2.78;;
60436;SDS011;46289;51.992;4.498;2023-08-21T10:30:12;6.95;;;2.70;;
60436;SDS011;46289;51.992;4.498;2023-08-21T10:32:25;4.80;;;2.30;;
60436;SDS011;46289;51.992;4.498;2023-08-21T10:34:36;7.28;;;2.70;;
60436;SDS011;46289;51.992;4.498;2023-08-21T10:39:14;7.60;;;2.15;;
60436;SDS011;46289;51.992;4.498;2023-08-21T10:41:19;4.65;;;2.10;;
60436;SDS011;46289;51.992;4.498;2023-08-21T10:43:37;4.85;;;2.05;;
60436;SDS011;46289;51.992;4.498;2023-08-21T10:45:53;5.47;;;2.00;;
60436;SDS011;46289;51.992;4.498;2023-08-21T10:47:59;6.50;;;2.28;;
60436;SDS011;46289;51.992;4.498;2023-08-21T10:50:07;5.13;;;2.70;;
60436;SDS011;46289;51.992;4.498;2023-08-21T10:52:13;4.53;;;2.15;;
60436;SDS011;46289;51.992;4.498;2023-08-21T10:54:16;2.95;;;1.70;;
60436;SDS011;46289;51.992;4.498;2023-08-21T10:56:21;2.90;;;2.05;;
60436;SDS011;46289;51.992;4.498;2023-08-21T10:58:26;3.10;;;1.63;;
60436;SDS011;46289;51.992;4.498;2023-08-21T11:00:35;5.57;;;1.70;;
60436;SDS011;46289;51.992;4.498;2023-08-21T11:02:41;4.65;;;2.20;;
60436;SDS011;46289;51.992;4.498;2023-08-21T11:04:48;3.50;;;2.17;;
60436;SDS011;46289;51.992;4.498;2023-08-21T11:06:56;7.60;;;1.80;;
60436;SDS011;46289;51.992;4.498;2023-08-21T11:09:02;4.22;;;1.80;;
60436;SDS011;46289;51.992;4.498;2023-08-21T11:11:09;5.10;;;1.95;;
60436;SDS011;46289;51.992;4.498;2023-08-21T11:13:15;1.65;;;1.30;;
60436;SDS011;46289;51.992;4.498;2023-08-21T11:15:21;4.18;;;1.50;;
60436;SDS011;46289;51.992;4.498;2023-08-21T11:17:26;2.75;;;1.60;;
60436;SDS011;46289;51.992;4.498;2023-08-21T11:19:32;4.65;;;1.85;;
60436;SDS011;46289;51.992;4.498;2023-08-21T11:21:36;5.05;;;1.50;;
60436;SDS011;46289;51.992;4.498;2023-08-21T11:23:44;4.45;;;1.73;;
60436;SDS011;46289;51.992;4.498;2023-08-21T11:25:49;4.10;;;1.90;;
60436;SDS011;46289;51.992;4.498;2023-08-21T11:28:07;4.60;;;2.03;;
60436;SDS011;46289;51.992;4.498;2023-08-21T11:30:13;4.65;;;1.83;;
60436;SDS011;46289;51.992;4.498;2023-08-21T11:32:19;3.13;;;1.70;;
60436;SDS011;46289;51.992;4.498;2023-08-21T11:34:26;3.50;;;1.75;;
60436;SDS011;46289;51.992;4.498;2023-08-21T11:36:32;4.80;;;2.28;;
60436;SDS011;46289;51.992;4.498;2023-08-21T11:38:37;4.95;;;1.92;;
60436;SDS011;46289;51.992;4.498;2023-08-21T11:40:45;3.97;;;1.70;;
60436;SDS011;46289;51.992;4.498;2023-08-21T11:42:59;4.07;;;1.92;;
60436;SDS011;46289;51.992;4.498;2023-08-21T11:45:07;4.82;;;2.10;;
60436;SDS011;46289;51.992;4.498;2023-08-21T11:47:15;3.65;;;1.83;;
60436;SDS011;46289;51.992;4.498;2023-08-21T11:49:21;5.47;;;2.08;;
60436;SDS011;46289;51.992;4.498;2023-08-21T11:51:26;5.22;;;2.25;;
60436;SDS011;46289;51.992;4.498;2023-08-21T11:53:34;5.97;;;2.03;;
60436;SDS011;46289;51.992;4.498;2023-08-21T11:55:40;3.45;;;1.83;;
60436;SDS011;46289;51.992;4.498;2023-08-21T11:57:49;3.40;;;1.90;;
60436;SDS011;46289;51.992;4.498;2023-08-21T11:59:58;3.60;;;1.90;;
60436;SDS011;46289;51.992;4.498;2023-08-21T12:02:08;6.57;;;1.80;;
60436;SDS011;46289;51.992;4.498;2023-08-21T12:04:14;2.63;;;1.90;;
60436;SDS011;46289;51.992;4.498;2023-08-21T12:06:17;2.88;;;1.73;;
60436;SDS011;46289;51.992;4.498;2023-08-21T12:08:22;8.23;;;2.13;;
60436;SDS011;46289;51.992;4.498;2023-08-21T12:10:31;4.72;;;1.95;;
60436;SDS011;46289;51.992;4.498;2023-08-21T12:12:36;6.40;;;2.08;;
60436;SDS011;46289;51.992;4.498;2023-08-21T12:14:44;5.57;;;1.98;;
60436;SDS011;46289;51.992;4.498;2023-08-21T12:16:49;6.13;;;1.90;;
60436;SDS011;46289;51.992;4.498;2023-08-21T12:18:56;4.22;;;1.98;;
60436;SDS011;46289;51.992;4.498;2023-08-21T12:21:01;7.13;;;2.20;;
60436;SDS011;46289;51.992;4.498;2023-08-21T12:23:04;5.28;;;2.03;;
60436;SDS011;46289;51.992;4.498;2023-08-21T12:25:12;6.40;;;2.33;;
60436;SDS011;46289;51.992;4.498;2023-08-21T12:27:20;6.15;;;2.13;;
60436;SDS011;46289;51.992;4.498;2023-08-21T12:29:25;7.43;;;2.30;;
60436;SDS011;46289;51.992;4.498;2023-08-21T12:31:33;6.03;;;2.00;;
60436;SDS011;46289;51.992;4.498;2023-08-21T12:33:40;4.75;;;1.80;;
60436;SDS011;46289;51.992;4.498;2023-08-21T12:35:47;6.18;;;2.17;;
60436;SDS011;46289;51.992;4.498;2023-08-21T12:37:56;6.57;;;2.22;;
60436;SDS011;46289;51.992;4.498;2023-08-21T12:40:07;6.53;;;2.35;;
60436;SDS011;46289;51.992;4.498;2023-08-21T12:42:14;4.97;;;1.92;;
60436;SDS011;46289;51.992;4.498;2023-08-21T12:44:19;4.97;;;2.22;;
60436;SDS011;46289;51.992;4.498;2023-08-21T12:46:26;8.27;;;2.63;;
60436;SDS011;46289;51.992;4.498;2023-08-21T12:48:34;9.32;;;2.47;;
60436;SDS011;46289;51.992;4.498;2023-08-21T12:50:40;5.28;;;2.63;;